createdAt,value
2022-08-21T00:00:55.481Z,51.58
2022-08-21T00:03:27.458Z,51.86
2022-08-21T00:05:59.601Z,52.02
2022-08-21T00:08:31.771Z,52.11
2022-08-21T00:11:04.953Z,52.08
2022-08-21T00:13:37.123Z,52.19
2022-08-21T00:16:09.395Z,52.27
2022-08-21T00:18:42.082Z,52.49
2022-08-21T00:21:15.373Z,52.58
2022-08-21T00:23:47.313Z,52.52
2022-08-21T00:26:19.433Z,52.55
2022-08-21T00:28:51.791Z,52.56
2022-08-21T00:31:23.749Z,52.72
2022-08-21T00:34:00.653Z,52.88
2022-08-21T00:36:33.255Z,52.55
2022-08-21T00:39:07.568Z,53.00
2022-08-21T00:41:40.427Z,53.07
2022-08-21T00:44:16.304Z,53.23
2022-08-21T00:46:48.365Z,53.15
2022-08-21T00:49:20.358Z,53.31
2022-08-21T00:51:55.222Z,53.42
2022-08-21T00:54:29.003Z,53.44
2022-08-21T00:57:10.789Z,53.91
2022-08-21T00:59:45.519Z,54.14
2022-08-21T01:02:18.486Z,54.79
2022-08-21T01:04:50.802Z,55.16
2022-08-21T01:07:22.808Z,55.65
2022-08-21T01:09:59.553Z,56.02
2022-08-21T01:12:32.492Z,56.36
2022-08-21T01:15:07.213Z,56.91
2022-08-21T01:17:39.541Z,56.87
2022-08-21T01:20:13.106Z,57.30
2022-08-21T01:22:45.210Z,57.37
2022-08-21T01:25:18.497Z,57.71
2022-08-21T01:27:50.434Z,57.68
2022-08-21T01:30:26.239Z,57.80
2022-08-21T01:32:59.047Z,57.24
2022-08-21T01:35:31.142Z,57.43
2022-08-21T01:38:03.833Z,57.53
2022-08-21T01:40:35.927Z,57.47
2022-08-21T01:43:08.671Z,57.59
2022-08-21T01:45:40.586Z,57.52
2022-08-21T01:48:12.712Z,57.38
2022-08-21T01:50:44.639Z,57.63
2022-08-21T01:53:16.624Z,57.54
2022-08-21T01:55:48.647Z,57.53
2022-08-21T01:58:21.731Z,57.52
2022-08-21T02:00:53.856Z,57.76
2022-08-21T02:03:35.919Z,57.92
2022-08-21T02:06:12.753Z,57.67
2022-08-21T02:08:45.368Z,57.73
2022-08-21T02:11:17.548Z,57.45
2022-08-21T02:13:49.766Z,57.51
2022-08-21T02:16:21.785Z,57.52
2022-08-21T02:18:53.819Z,57.50
2022-08-21T02:21:26.298Z,57.80
2022-08-21T02:23:58.510Z,57.69
2022-08-21T02:26:30.385Z,57.96
2022-08-21T02:29:04.087Z,58.12
2022-08-21T02:31:36.118Z,58.21
2022-08-21T02:34:09.870Z,58.29
2022-08-21T02:36:43.654Z,58.21
2022-08-21T02:39:15.845Z,58.57
2022-08-21T02:41:59.504Z,58.47
2022-08-21T02:44:34.464Z,58.61
2022-08-21T02:47:07.162Z,58.70
2022-08-21T02:49:39.133Z,58.70
2022-08-21T02:52:12.809Z,58.53
2022-08-21T02:54:44.988Z,58.70
2022-08-21T02:57:17.324Z,58.68
2022-08-21T02:59:49.400Z,58.62
2022-08-21T03:02:22.645Z,58.71
2022-08-21T03:04:54.897Z,58.83
2022-08-21T03:07:27.549Z,59.02
2022-08-21T03:09:59.581Z,58.96
2022-08-21T03:12:31.818Z,59.18
2022-08-21T03:15:05.557Z,59.21
2022-08-21T03:17:38.128Z,59.29
2022-08-21T03:20:11.645Z,59.44
2022-08-21T03:22:48.544Z,59.30
2022-08-21T03:25:39.513Z,59.67
2022-08-21T03:28:16.514Z,59.82
2022-08-21T03:30:50.407Z,59.97
2022-08-21T03:33:23.340Z,60.13
2022-08-21T03:36:03.578Z,60.49
2022-08-21T03:38:37.852Z,60.58
2022-08-21T03:41:09.969Z,60.47
2022-08-21T03:43:42.122Z,60.69
2022-08-21T03:46:14.784Z,60.79
2022-08-21T03:48:47.003Z,60.96
2022-08-21T03:51:19.455Z,61.23
2022-08-21T03:53:51.492Z,61.33
2022-08-21T03:56:23.695Z,61.68
2022-08-21T03:58:56.661Z,61.78
2022-08-21T04:01:28.980Z,61.77
2022-08-21T04:04:01.105Z,62.07
2022-08-21T04:06:37.771Z,62.25
2022-08-21T04:09:09.983Z,62.37
2022-08-21T04:11:42.124Z,62.58
2022-08-21T04:14:15.268Z,62.65
2022-08-21T04:16:47.553Z,62.67
2022-08-21T04:19:19.590Z,62.90
2022-08-21T04:21:52.638Z,63.11
2022-08-21T04:24:24.706Z,63.27
2022-08-21T04:26:56.683Z,63.30
2022-08-21T04:29:28.803Z,63.41
2022-08-21T04:32:00.903Z,63.44
2022-08-21T04:34:33.191Z,63.44
2022-08-21T04:37:05.468Z,63.55
2022-08-21T04:39:37.457Z,63.46
2022-08-21T04:42:10.452Z,63.45
2022-08-21T04:44:42.546Z,63.40
2022-08-21T04:47:14.621Z,63.38
2022-08-21T04:49:46.882Z,63.44
2022-08-21T04:52:22.764Z,63.32
2022-08-21T04:54:55.071Z,63.28
2022-08-21T04:57:39.749Z,63.21
2022-08-21T05:00:20.399Z,63.02
2022-08-21T05:02:57.185Z,63.03
2022-08-21T05:05:30.281Z,62.77
2022-08-21T05:08:03.100Z,62.69
2022-08-21T05:10:35.370Z,62.15
2022-08-21T05:13:08.014Z,61.87
2022-08-21T05:15:40.793Z,61.71
2022-08-21T05:18:13.703Z,61.33
2022-08-21T05:20:46.090Z,61.25
2022-08-21T05:23:18.356Z,60.53
2022-08-21T05:25:50.428Z,60.09
2022-08-21T05:28:22.756Z,59.65
2022-08-21T05:30:54.989Z,59.39
2022-08-21T05:33:27.080Z,59.14
2022-08-21T05:35:59.474Z,59.11
2022-08-21T05:38:31.525Z,59.39
2022-08-21T05:41:03.761Z,59.26
2022-08-21T05:43:37.347Z,59.04
2022-08-21T05:46:09.774Z,58.94
2022-08-21T05:48:41.802Z,58.88
2022-08-21T05:51:15.975Z,58.63
2022-08-21T05:53:48.403Z,58.63
2022-08-21T05:56:20.535Z,58.25
2022-08-21T05:58:52.646Z,58.22
2022-08-21T06:01:25.620Z,57.78
2022-08-21T06:03:57.790Z,57.61
2022-08-21T06:06:30.349Z,57.51
2022-08-21T06:09:03.112Z,57.31
2022-08-21T06:11:35.656Z,57.04
2022-08-21T06:14:08.713Z,56.94
2022-08-21T06:16:40.905Z,56.92
2022-08-21T06:19:13.444Z,56.54
2022-08-21T06:21:45.576Z,56.33
2022-08-21T06:24:17.591Z,56.43
2022-08-21T06:26:50.062Z,55.75
2022-08-21T06:29:22.389Z,55.75
2022-08-21T06:31:54.779Z,55.93
2022-08-21T06:34:27.795Z,55.92
2022-08-21T06:36:59.866Z,55.59
2022-08-21T06:39:32.520Z,55.54
2022-08-21T06:42:04.757Z,55.54
2022-08-21T06:44:42.542Z,55.51
2022-08-21T06:47:14.852Z,55.38
2022-08-21T06:49:47.139Z,55.39
2022-08-21T06:52:19.572Z,55.35
2022-08-21T06:54:51.568Z,55.19
2022-08-21T06:57:23.702Z,55.27
2022-08-21T06:59:56.010Z,55.23
2022-08-21T07:02:28.310Z,54.95
2022-08-21T07:05:00.989Z,54.86
2022-08-21T07:07:33.459Z,54.58
2022-08-21T07:10:05.975Z,54.46
2022-08-21T07:12:38.802Z,54.37
2022-08-21T07:15:11.149Z,54.13
2022-08-21T07:17:43.434Z,53.72
2022-08-21T07:20:15.638Z,53.58
2022-08-21T07:22:48.008Z,53.48
2022-08-21T07:25:20.667Z,53.17
2022-08-21T07:27:53.178Z,52.99
2022-08-21T07:30:26.207Z,52.83
2022-08-21T07:33:00.489Z,52.56
2022-08-21T07:35:34.221Z,52.43
2022-08-21T07:38:06.255Z,52.01
2022-08-21T07:40:38.347Z,52.23
2022-08-21T07:43:10.722Z,53.00
2022-08-21T07:45:42.937Z,53.22
2022-08-21T07:48:15.275Z,53.41
2022-08-21T07:50:48.672Z,53.58
2022-08-21T07:53:20.899Z,53.75
2022-08-21T07:55:53.309Z,53.66
2022-08-21T07:58:25.538Z,53.37
2022-08-21T08:00:58.164Z,53.38
2022-08-21T08:03:30.627Z,53.11
2022-08-21T08:06:05.214Z,53.27
2022-08-21T08:08:37.154Z,53.07
2022-08-21T08:11:11.898Z,52.98
2022-08-21T08:13:46.853Z,52.96
2022-08-21T08:16:19.450Z,52.79
2022-08-21T08:18:52.268Z,52.75
2022-08-21T08:21:24.468Z,52.40
2022-08-21T08:23:56.405Z,52.51
2022-08-21T08:26:28.542Z,52.40
2022-08-21T08:29:01.009Z,52.42
2022-08-21T08:31:34.717Z,51.78
2022-08-21T08:34:06.721Z,51.93
2022-08-21T08:36:38.807Z,51.65
2022-08-21T08:39:13.444Z,51.60
2022-08-21T08:42:32.289Z,51.42
2022-08-21T08:45:14.609Z,51.39
2022-08-21T08:47:51.039Z,51.38
2022-08-21T08:50:29.320Z,51.13
2022-08-21T08:53:06.269Z,50.92
2022-08-21T08:55:43.040Z,50.41
2022-08-21T08:58:33.495Z,50.16
2022-08-21T09:01:13.615Z,50.10
2022-08-21T09:03:50.572Z,50.04
2022-08-21T09:06:47.180Z,50.04
2022-08-21T09:09:24.206Z,49.82
2022-08-21T09:12:34.487Z,49.41
2022-08-21T09:15:23.777Z,49.19
2022-08-21T09:18:17.567Z,48.83
2022-08-21T09:21:21.941Z,48.72
2022-08-21T09:24:11.712Z,49.04
2022-08-21T09:27:07.034Z,48.71
2022-08-21T09:29:41.842Z,49.25
2022-08-21T09:32:37.724Z,49.19
2022-08-21T09:35:16.689Z,49.29
2022-08-21T09:38:00.148Z,48.98
2022-08-21T09:40:46.289Z,49.63
2022-08-21T09:43:22.489Z,49.58
2022-08-21T09:46:12.232Z,49.92
2022-08-21T09:48:49.894Z,49.75
2022-08-21T09:51:26.311Z,49.92
2022-08-21T09:54:13.903Z,49.73
2022-08-21T09:57:33.016Z,49.65
2022-08-21T10:00:19.364Z,49.80
2022-08-21T10:02:51.347Z,50.01
2022-08-21T10:05:26.616Z,49.73
2022-08-21T10:07:58.516Z,49.45
2022-08-21T10:10:33.010Z,49.78
2022-08-21T10:13:15.995Z,49.68
2022-08-21T10:16:15.276Z,49.08
2022-08-21T10:18:51.342Z,49.19
2022-08-21T10:22:01.638Z,48.91
2022-08-21T10:24:44.102Z,48.83
2022-08-21T10:27:45.187Z,48.61
2022-08-21T10:30:25.968Z,48.49
2022-08-21T10:33:24.993Z,47.86
2022-08-21T10:36:12.967Z,47.77
2022-08-21T10:39:35.457Z,47.86
2022-08-21T10:42:40.532Z,47.77
2022-08-21T10:45:21.500Z,47.75
2022-08-21T10:47:58.174Z,47.00
2022-08-21T10:50:41.156Z,46.04
2022-08-21T10:54:07.259Z,45.38
2022-08-21T10:56:41.838Z,45.92
2022-08-21T10:59:29.984Z,45.33
2022-08-21T11:02:24.747Z,45.12
2022-08-21T11:04:58.397Z,45.23
2022-08-21T11:07:34.860Z,44.21
2022-08-21T11:10:13.567Z,44.19
2022-08-21T11:12:54.772Z,44.03
2022-08-21T11:15:40.079Z,44.08
2022-08-21T11:18:24.178Z,43.99
2022-08-21T11:21:04.211Z,43.81
2022-08-21T11:24:04.560Z,42.03
2022-08-21T11:26:44.549Z,41.79
2022-08-21T11:29:22.489Z,40.76
2022-08-21T11:32:16.338Z,40.83
2022-08-21T11:35:19.095Z,39.81
2022-08-21T11:38:15.384Z,39.30
2022-08-21T11:41:05.500Z,36.94
2022-08-21T11:43:43.748Z,37.61
2022-08-21T11:46:37.450Z,35.13
2022-08-21T11:49:29.822Z,31.91
2022-08-21T11:52:43.481Z,31.84
2022-08-21T11:55:24.553Z,31.13
2022-08-21T11:58:00.997Z,30.14
2022-08-21T12:00:48.921Z,28.57
2022-08-21T12:03:30.135Z,28.20
2022-08-21T12:06:12.666Z,26.27
2022-08-21T12:08:46.791Z,27.52
2022-08-21T12:11:18.909Z,26.72
2022-08-21T12:14:02.017Z,24.71
2022-08-21T12:16:37.973Z,25.78
2022-08-21T12:19:15.704Z,24.72
2022-08-21T12:21:55.478Z,24.81
2022-08-21T12:24:27.954Z,25.17
2022-08-21T12:27:14.402Z,24.69
2022-08-21T12:29:48.582Z,25.13
2022-08-21T12:32:26.239Z,24.45
2022-08-21T12:35:14.227Z,23.79
2022-08-21T12:38:17.149Z,22.89
2022-08-21T12:41:00.197Z,23.58
2022-08-21T12:43:37.219Z,22.96
2022-08-21T12:46:18.352Z,21.43
2022-08-21T12:48:53.829Z,22.09
2022-08-21T12:51:32.778Z,21.68
2022-08-21T12:54:04.826Z,21.70
2022-08-21T12:56:38.111Z,22.05
2022-08-21T12:59:13.020Z,21.86
2022-08-21T13:01:50.989Z,21.11
2022-08-21T13:04:28.343Z,20.98
2022-08-21T13:07:00.748Z,21.00
2022-08-21T13:09:32.961Z,20.50
2022-08-21T13:12:09.631Z,19.03
2022-08-21T13:14:46.130Z,19.43
2022-08-21T13:17:23.647Z,18.97
2022-08-21T13:20:04.780Z,18.88
2022-08-21T13:22:44.744Z,18.55
2022-08-21T13:25:19.430Z,18.50
2022-08-21T13:28:12.689Z,17.09
2022-08-21T13:30:56.635Z,18.13
2022-08-21T13:33:35.177Z,18.45
2022-08-21T13:36:20.070Z,18.39
2022-08-21T13:38:54.371Z,19.16
2022-08-21T13:41:32.672Z,18.50
2022-08-21T13:44:18.351Z,18.60
2022-08-21T13:46:52.392Z,18.50
2022-08-21T13:49:36.138Z,17.69
2022-08-21T13:52:26.675Z,18.11
2022-08-21T13:55:01.751Z,18.08
2022-08-21T13:57:34.969Z,17.97
2022-08-21T14:00:19.439Z,17.82
2022-08-21T14:02:54.009Z,18.33
2022-08-21T14:05:32.720Z,17.92
2022-08-21T14:08:09.244Z,18.30
2022-08-21T14:10:52.288Z,17.59
2022-08-21T14:13:44.308Z,18.14
2022-08-21T14:16:17.991Z,18.36
2022-08-21T14:18:51.894Z,17.92
2022-08-21T14:21:29.161Z,18.33
2022-08-21T14:24:14.242Z,18.20
2022-08-21T14:27:07.493Z,18.45
2022-08-21T14:29:44.017Z,19.10
2022-08-21T14:32:24.956Z,19.49
2022-08-21T14:34:59.361Z,20.29
2022-08-21T14:37:31.664Z,21.38
2022-08-21T14:40:06.054Z,22.75
2022-08-21T14:42:39.522Z,23.32
2022-08-21T14:45:23.867Z,24.80
2022-08-21T14:47:57.391Z,24.96
2022-08-21T14:50:29.766Z,25.41
2022-08-21T14:53:01.880Z,25.73
2022-08-21T14:55:54.147Z,26.46
2022-08-21T14:58:26.395Z,26.90
2022-08-21T15:00:59.231Z,27.72
2022-08-21T15:03:32.131Z,28.11
2022-08-21T15:06:06.230Z,28.04
2022-08-21T15:08:38.914Z,28.09
2022-08-21T15:11:19.916Z,28.72
2022-08-21T15:14:09.763Z,29.29
2022-08-21T15:16:42.933Z,29.28
2022-08-21T15:19:14.888Z,29.65
2022-08-21T15:21:46.825Z,29.34
2022-08-21T15:24:18.960Z,29.59
2022-08-21T15:26:51.678Z,29.66
2022-08-21T15:29:25.900Z,29.67
2022-08-21T15:32:28.372Z,30.40
2022-08-21T15:35:00.599Z,30.17
2022-08-21T15:37:33.332Z,29.96
2022-08-21T15:40:08.109Z,30.29
2022-08-21T15:42:41.879Z,30.74
2022-08-21T15:45:14.816Z,30.54
2022-08-21T15:47:47.175Z,30.81
2022-08-21T15:50:20.011Z,31.06
2022-08-21T15:52:52.064Z,31.34
2022-08-21T15:55:24.232Z,31.13
2022-08-21T15:57:57.352Z,31.47
2022-08-21T16:00:33.439Z,31.71
2022-08-21T16:03:07.400Z,31.71
2022-08-21T16:05:39.393Z,31.67
2022-08-21T16:08:11.973Z,31.84
2022-08-21T16:10:44.002Z,31.88
2022-08-21T16:13:23.353Z,32.05
2022-08-21T16:15:55.693Z,31.67
2022-08-21T16:18:27.725Z,31.94
2022-08-21T16:20:59.713Z,32.05
2022-08-21T16:23:31.758Z,32.01
2022-08-21T16:26:04.140Z,32.03
2022-08-21T16:28:38.848Z,32.59
2022-08-21T16:31:11.273Z,32.53
2022-08-21T16:33:51.773Z,32.91
2022-08-21T16:36:29.479Z,32.83
2022-08-21T16:39:01.579Z,32.73
2022-08-21T16:41:34.639Z,33.03
2022-08-21T16:44:07.253Z,33.15
2022-08-21T16:46:42.023Z,33.43
2022-08-21T16:49:14.477Z,33.12
2022-08-21T16:51:46.413Z,33.03
2022-08-21T16:54:18.882Z,33.12
2022-08-21T16:56:51.360Z,32.99
2022-08-21T16:59:26.435Z,33.15
2022-08-21T17:01:58.475Z,33.02
2022-08-21T17:04:31.114Z,33.43
2022-08-21T17:07:03.185Z,33.10
2022-08-21T17:09:35.378Z,33.45
2022-08-21T17:12:07.962Z,33.36
2022-08-21T17:14:39.837Z,33.29
2022-08-21T17:17:12.265Z,33.43
2022-08-21T17:19:44.638Z,33.56
2022-08-21T17:22:16.818Z,33.49
2022-08-21T17:24:48.678Z,33.62
2022-08-21T17:27:26.835Z,34.07
2022-08-21T17:29:59.038Z,34.22
2022-08-21T17:32:31.250Z,34.35
2022-08-21T17:35:04.811Z,34.34
2022-08-21T17:37:37.158Z,34.43
2022-08-21T17:40:14.260Z,34.68
2022-08-21T17:42:47.866Z,35.07
2022-08-21T17:45:20.503Z,35.08
2022-08-21T17:47:52.621Z,35.34
2022-08-21T17:50:24.790Z,35.73
2022-08-21T17:52:56.912Z,35.82
2022-08-21T17:55:29.508Z,36.33
2022-08-21T17:58:03.690Z,36.60
2022-08-21T18:00:36.115Z,37.21
2022-08-21T18:03:15.069Z,37.69
2022-08-21T18:05:48.548Z,38.29
2022-08-21T18:08:20.836Z,39.03
2022-08-21T18:10:53.014Z,39.42
2022-08-21T18:13:29.104Z,40.22
2022-08-21T18:16:01.227Z,40.34
2022-08-21T18:18:38.960Z,41.08
2022-08-21T18:21:10.970Z,41.12
2022-08-21T18:23:43.996Z,41.46
2022-08-21T18:26:25.273Z,42.36
2022-08-21T18:29:00.377Z,42.44
2022-08-21T18:31:33.533Z,42.48
2022-08-21T18:34:27.140Z,43.34
2022-08-21T18:36:59.014Z,42.82
2022-08-21T18:39:38.911Z,43.38
2022-08-21T18:42:14.720Z,43.65
2022-08-21T18:44:49.995Z,44.29
2022-08-21T18:47:45.564Z,45.28
2022-08-21T18:50:21.854Z,44.77
2022-08-21T18:52:56.972Z,45.19
2022-08-21T18:55:29.588Z,45.73
2022-08-21T18:58:02.434Z,45.91
2022-08-21T19:00:38.030Z,46.58
2022-08-21T19:03:19.999Z,47.01
2022-08-21T19:05:56.277Z,46.81
2022-08-21T19:08:28.763Z,47.46
2022-08-21T19:11:02.429Z,47.19
2022-08-21T19:13:35.025Z,47.80
2022-08-21T19:16:09.729Z,48.00
2022-08-21T19:18:43.652Z,48.24
2022-08-21T19:21:16.445Z,48.30
2022-08-21T19:23:52.621Z,48.57
2022-08-21T19:26:26.627Z,48.86
2022-08-21T19:29:02.058Z,48.99
2022-08-21T19:31:39.065Z,49.16
2022-08-21T19:34:22.176Z,49.95
2022-08-21T19:36:56.733Z,49.39
2022-08-21T19:39:28.777Z,49.43
2022-08-21T19:42:00.703Z,49.57
2022-08-21T19:44:33.847Z,49.66
2022-08-21T19:47:14.127Z,49.83
2022-08-21T19:49:52.952Z,49.55
2022-08-21T19:52:25.584Z,49.45
2022-08-21T19:54:57.675Z,49.39
2022-08-21T19:57:29.598Z,49.42
2022-08-21T20:00:02.119Z,49.38
2022-08-21T20:02:39.768Z,49.48
2022-08-21T20:05:20.262Z,49.66
2022-08-21T20:07:53.212Z,49.89
2022-08-21T20:10:25.870Z,49.89
2022-08-21T20:12:58.035Z,50.07
2022-08-21T20:15:30.264Z,50.39
2022-08-21T20:18:03.383Z,50.11
2022-08-21T20:20:38.339Z,50.26
2022-08-21T20:23:11.105Z,50.09
2022-08-21T20:25:43.079Z,50.06
2022-08-21T20:28:15.682Z,50.23
2022-08-21T20:30:49.706Z,50.13
2022-08-21T20:33:22.024Z,49.89
2022-08-21T20:35:54.444Z,50.09
2022-08-21T20:38:26.449Z,50.12
2022-08-21T20:40:58.677Z,50.38
2022-08-21T20:43:31.813Z,50.14
2022-08-21T20:46:04.597Z,50.22
2022-08-21T20:48:49.164Z,50.21
2022-08-21T20:51:27.164Z,50.63
2022-08-21T20:54:23.669Z,50.74
2022-08-21T20:57:29.832Z,51.11
2022-08-21T21:00:08.309Z,50.94
2022-08-21T21:03:10.650Z,51.30
2022-08-21T21:05:51.443Z,51.00
2022-08-21T21:08:52.133Z,51.27
2022-08-21T21:11:34.234Z,51.17
2022-08-21T21:14:36.145Z,51.71
2022-08-21T21:17:16.273Z,51.63
2022-08-21T21:20:05.795Z,51.98
2022-08-21T21:22:47.749Z,52.06
2022-08-21T21:25:39.950Z,52.32
2022-08-21T21:28:35.123Z,52.50
2022-08-21T21:31:07.085Z,52.11
2022-08-21T21:33:38.943Z,52.22
2022-08-21T21:36:33.732Z,52.67
2022-08-21T21:39:23.781Z,52.92
2022-08-21T21:42:32.781Z,53.10
2022-08-21T21:45:10.335Z,53.16
2022-08-21T21:47:56.032Z,53.34
2022-08-21T21:50:52.803Z,53.38
2022-08-21T21:54:04.031Z,53.74
2022-08-21T21:56:55.061Z,53.67
2022-08-21T21:59:51.463Z,53.71
2022-08-21T22:02:44.801Z,53.59
2022-08-21T22:05:35.465Z,54.14
2022-08-21T22:08:50.555Z,54.27
2022-08-21T22:11:55.375Z,54.10
2022-08-21T22:14:34.241Z,54.21
2022-08-21T22:17:31.964Z,54.56
2022-08-21T22:20:08.626Z,54.33
2022-08-21T22:22:45.522Z,54.05
2022-08-21T22:25:29.371Z,54.46
2022-08-21T22:28:09.886Z,54.38
2022-08-21T22:31:08.233Z,54.23
2022-08-21T22:33:40.346Z,54.17
2022-08-21T22:36:18.351Z,54.59
2022-08-21T22:38:50.884Z,54.43
2022-08-21T22:41:31.033Z,54.51
2022-08-21T22:44:06.894Z,54.51
2022-08-21T22:47:08.838Z,54.79
2022-08-21T22:49:44.752Z,54.77
2022-08-21T22:52:28.819Z,55.15
2022-08-21T22:55:04.677Z,54.79
2022-08-21T22:57:36.514Z,54.78
2022-08-21T23:00:14.902Z,55.08
2022-08-21T23:02:52.235Z,55.05
2022-08-21T23:05:30.705Z,55.01
2022-08-21T23:08:28.219Z,55.58
2022-08-21T23:11:13.177Z,55.55
2022-08-21T23:13:49.287Z,55.33
2022-08-21T23:16:47.197Z,55.53
2022-08-21T23:19:25.239Z,55.54
2022-08-21T23:22:18.816Z,55.47
2022-08-21T23:25:18.694Z,55.96
2022-08-21T23:27:53.738Z,55.62
2022-08-21T23:30:44.159Z,55.78
2022-08-21T23:33:24.816Z,55.57
2022-08-21T23:36:39.469Z,55.94
2022-08-21T23:39:11.464Z,55.73
2022-08-21T23:41:53.643Z,56.02
2022-08-21T23:44:37.483Z,56.18
2022-08-21T23:47:33.769Z,56.26
2022-08-21T23:50:14.178Z,56.33
2022-08-21T23:53:09.053Z,56.10
2022-08-21T23:56:00.000Z,55.96
2022-08-21T23:59:02.720Z,56.21
